Time;durP1;ratioP1;P1;durP2;ratioP2;P2;SDS_P1;SDS_P2;PMS_P1;PMS_P2;Temp;Humidity;BMP_temperature;BMP_pressure;BME280_temperature;BME280_humidity;BME280_pressure;Samples;Min_cycle;Max_cycle;Signal;HPM_P1;HPM_P2
2024/04/18 00:01:05;;;;;;;5.30;3.60;;;;;;;21.51;52.36;99848.64;107123;1263;25381;-56
2024/04/18 00:03:32;;;;;;;3.90;3.50;;;;;;;21.52;52.41;99850.37;107066;1257;25490;-58
2024/04/18 00:06:00;;;;;;;7.10;4.00;;;;;;;21.52;52.49;99854.58;107056;1273;25381;-57
2024/04/18 00:08:27;;;;;;;4.80;3.80;;;;;;;21.52;52.46;99847.36;107064;1254;22527;-56
2024/04/18 00:10:57;;;;;;;4.30;3.50;;;;;;;21.51;52.50;99841.98;107129;1254;25361;-56
2024/04/18 00:13:36;;;;;;;5.80;3.60;;;;;;;21.50;52.38;99843.96;107174;1256;25381;-58
2024/04/18 00:16:04;;;;;;;3.80;3.50;;;;;;;21.50;52.43;99846.16;107067;1254;25381;-58
2024/04/18 00:18:34;;;;;;;4.00;3.60;;;;;;;21.48;52.42;99845.26;107163;1251;24250;-57
2024/04/18 00:21:19;;;;;;;8.20;3.20;;;;;;;21.45;52.25;99849.66;107088;1261;25388;-58
2024/04/18 00:23:52;;;;;;;4.10;3.70;;;;;;;21.45;52.24;99857.15;107026;1254;25354;-57
2024/04/18 00:26:40;;;;;;;4.80;3.30;;;;;;;21.43;52.07;99858.02;105512;1251;1003711;-57
2024/04/18 00:29:06;;;;;;;3.30;2.90;;;;;;;21.40;52.16;99858.21;107127;1254;25354;-56
2024/04/18 00:31:34;;;;;;;4.30;2.90;;;;;;;21.37;52.26;99854.92;107038;1260;25368;-56
2024/04/18 00:34:01;;;;;;;4.30;3.20;;;;;;;21.34;52.12;99859.23;107174;1254;25428;-56
2024/04/18 00:36:28;;;;;;;3.70;3.30;;;;;;;21.32;52.20;99858.20;107027;1254;25350;-55
2024/04/18 00:38:56;;;;;;;4.10;3.40;;;;;;;21.29;52.16;99861.93;107101;1254;25350;-55
2024/04/18 00:41:23;;;;;;;4.40;3.40;;;;;;;21.26;52.24;99862.59;106814;1257;24230;-58
2024/04/18 00:43:58;;;;;;;4.00;3.40;;;;;;;21.19;52.30;99867.66;107098;1257;25372;-55
2024/04/18 00:46:33;;;;;;;4.30;3.80;;;;;;;21.13;52.43;99870.97;106830;1259;25471;-55
2024/04/18 00:49:00;;;;;;;3.10;2.80;;;;;;;21.08;52.51;99867.31;107136;1257;25503;-55
2024/04/18 00:51:27;;;;;;;3.60;3.10;;;;;;;21.03;52.40;99864.66;107152;1256;23267;-56
2024/04/18 00:53:55;;;;;;;3.20;2.80;;;;;;;20.99;52.35;99866.61;107082;1256;22653;-57
2024/04/18 00:56:25;;;;;;;3.50;2.70;;;;;;;20.93;52.35;99863.14;107047;1256;25453;-55
2024/04/18 00:59:12;;;;;;;2.90;2.60;;;;;;;20.88;52.32;99860.58;107047;1254;25379;-55
2024/04/18 01:01:40;;;;;;;3.60;2.90;;;;;;;20.83;52.48;99863.23;107059;1256;25344;-55
2024/04/18 01:04:07;;;;;;;6.60;3.10;;;;;;;20.80;52.63;99859.45;106983;1267;25381;-56
2024/04/18 01:06:41;;;;;;;5.10;3.50;;;;;;;20.76;52.54;99855.56;106828;1267;25466;-56
2024/04/18 01:09:15;;;;;;;5.70;3.70;;;;;;;20.71;52.44;99856.83;106829;1259;25493;-56
2024/04/18 01:12:02;;;;;;;4.00;3.50;;;;;;;20.67;52.46;99852.75;106146;1267;1003552;-55
2024/04/18 01:14:29;;;;;;;5.40;3.30;;;;;;;20.63;52.40;99845.45;107212;1263;25368;-56
2024/04/18 01:17:03;;;;;;;4.60;3.60;;;;;;;20.59;52.48;99846.48;107109;1254;23482;-56
2024/04/18 01:19:30;;;;;;;4.20;3.50;;;;;;;20.55;52.45;99837.13;106894;1266;22528;-55
2024/04/18 01:21:57;;;;;;;4.50;3.90;;;;;;;20.50;52.62;99831.64;106813;1269;25357;-55
2024/04/18 01:24:30;;;;;;;3.90;3.50;;;;;;;20.44;52.54;99831.48;106520;1276;25332;-55
2024/04/18 01:26:57;;;;;;;6.50;3.70;;;;;;;20.35;52.63;99825.61;106831;1260;25511;-56
2024/04/18 01:29:41;;;;;;;5.50;3.90;;;;;;;20.26;52.85;99818.88;106847;1266;25465;-56
2024/04/18 01:32:32;;;;;;;4.10;3.70;;;;;;;20.19;53.17;99815.05;106748;1259;25409;-56
2024/04/18 01:34:59;;;;;;;4.30;3.90;;;;;;;20.10;53.33;99814.33;105886;1270;1003025;-55
2024/04/18 01:37:45;;;;;;;5.70;4.30;;;;;;;20.02;53.51;99813.88;106696;1260;25350;-55
2024/04/18 01:40:15;;;;;;;4.90;3.90;;;;;;;19.97;53.64;99817.80;106777;1269;25337;-55
2024/04/18 01:42:42;;;;;;;4.80;4.20;;;;;;;19.93;53.71;99819.12;106783;1259;25498;-56
2024/04/18 01:45:26;;;;;;;4.40;3.70;;;;;;;19.93;53.72;99823.05;106798;1260;25430;-55
2024/04/18 01:48:11;;;;;;;5.20;4.20;;;;;;;19.89;53.71;99826.86;106859;1269;25650;-55
2024/04/18 01:50:58;;;;;;;5.20;4.00;;;;;;;19.83;53.99;99831.48;106755;1269;25410;-56
2024/04/18 01:53:33;;;;;;;4.20;3.80;;;;;;;19.82;54.08;99839.87;106818;1261;25344;-55
2024/04/18 01:56:01;;;;;;;4.40;3.80;;;;;;;19.85;54.19;99835.77;107084;1263;25430;-57
2024/04/18 01:58:46;;;;;;;4.40;4.00;;;;;;;19.91;54.07;99833.56;106934;1260;25372;-55
2024/04/18 02:01:13;;;;;;;4.90;4.40;;;;;;;19.95;54.06;99831.13;106686;1260;25503;-55
2024/04/18 02:03:40;;;;;;;6.20;5.10;;;;;;;19.98;54.06;99830.91;106850;1260;23357;-55
2024/04/18 02:06:14;;;;;;;4.80;4.40;;;;;;;20.01;53.86;99832.46;107002;1257;25372;-58
2024/04/18 02:08:47;;;;;;;5.10;4.70;;;;;;;20.03;53.75;99836.73;107047;1257;25354;-57
2024/04/18 02:11:39;;;;;;;6.40;5.00;;;;;;;20.04;53.79;99837.30;107037;1254;25478;-57
2024/04/18 02:14:10;;;;;;;5.00;4.50;;;;;;;20.05;53.92;99837.42;106788;1259;25382;-57
2024/04/18 02:16:38;;;;;;;5.50;5.00;;;;;;;20.07;53.72;99831.85;107126;1267;25372;-56
2024/04/18 02:19:24;;;;;;;5.00;4.60;;;;;;;20.08;53.69;99816.08;107129;1254;22662;-56
2024/04/18 02:21:58;;;;;;;4.70;4.30;;;;;;;20.06;53.50;99804.02;106829;1261;25401;-56
2024/04/18 02:24:43;;;;;;;5.80;4.90;;;;;;;20.00;53.50;99801.70;107031;1254;25421;-57
2024/04/18 02:27:12;;;;;;;5.40;5.00;;;;;;;19.95;53.74;99808.11;106755;1257;22684;-56
2024/04/18 02:29:39;;;;;;;6.00;5.40;;;;;;;19.89;53.93;99812.39;106816;1266;25344;-57
2024/04/18 02:32:06;;;;;;;5.70;5.20;;;;;;;19.87;54.00;99813.48;106892;1254;25354;-56
2024/04/18 02:34:33;;;;;;;6.50;5.80;;;;;;;19.80;54.30;99806.77;106865;1254;24188;-56
2024/04/18 02:37:21;;;;;;;6.50;5.80;;;;;;;19.72;54.54;99812.97;106705;1257;25338;-56
2024/04/18 02:39:48;;;;;;;6.60;6.00;;;;;;;19.69;54.76;99807.95;106854;1257;25539;-56
2024/04/18 02:42:25;;;;;;;7.00;5.70;;;;;;;19.64;54.98;99818.88;106723;1273;25399;-56
2024/04/18 02:45:01;;;;;;;7.40;6.70;;;;;;;19.65;55.31;99825.54;107105;1257;25344;-57
2024/04/18 02:47:50;;;;;;;6.50;5.90;;;;;;;19.68;55.37;99819.45;107144;1256;25372;-56
2024/04/18 02:50:36;;;;;;;7.90;6.20;;;;;;;19.71;55.30;99818.53;107137;1256;25363;-56
2024/04/18 02:53:03;;;;;;;6.80;6.10;;;;;;;19.70;55.22;99819.15;107072;1264;25353;-56
2024/04/18 02:55:30;;;;;;;7.40;6.70;;;;;;;19.71;55.29;99818.71;106826;1260;25386;-56
2024/04/18 02:57:57;;;;;;;6.80;6.10;;;;;;;19.73;55.32;99818.92;107151;1256;25504;-56
2024/04/18 03:00:24;;;;;;;7.40;6.70;;;;;;;19.75;55.31;99819.27;107002;1260;25344;-57
2024/04/18 03:03:09;;;;;;;7.20;6.60;;;;;;;19.78;55.38;99831.35;107063;1257;25504;-57
2024/04/18 03:06:03;;;;;;;7.30;6.60;;;;;;;19.83;55.26;99829.78;106841;1269;25434;-57
2024/04/18 03:08:31;;;;;;;7.90;7.10;;;;;;;19.85;55.17;99828.71;107121;1263;25525;-57
2024/04/18 03:11:15;;;;;;;7.20;6.60;;;;;;;19.84;55.14;99833.70;107102;1257;25353;-57
2024/04/18 03:14:02;;;;;;;7.70;7.00;;;;;;;19.87;55.00;99834.05;106858;1259;24400;-58
2024/04/18 03:16:30;;;;;;;7.70;7.00;;;;;;;19.87;54.98;99832.64;107064;1251;25408;-57
2024/04/18 03:19:17;;;;;;;7.60;6.90;;;;;;;19.87;55.00;99831.89;107054;1266;25350;-57
2024/04/18 03:21:53;;;;;;;8.00;7.20;;;;;;;19.84;55.07;99831.08;107126;1258;22530;-58
2024/04/18 03:24:22;;;;;;;7.30;6.60;;;;;;;19.83;55.03;99830.15;106426;1254;1003821;-58
2024/04/18 03:26:50;;;;;;;7.60;6.90;;;;;;;19.81;55.06;99828.31;107014;1263;22667;-57
2024/04/18 03:29:18;;;;;;;7.90;7.20;;;;;;;19.75;55.18;99824.20;106418;1256;1003600;-58
2024/04/18 03:31:57;;;;;;;8.00;7.20;;;;;;;19.70;55.42;99821.95;107060;1254;25382;-57
2024/04/18 03:34:42;;;;;;;8.60;7.40;;;;;;;19.64;55.60;99824.19;106333;1256;1003658;-57
2024/04/18 03:37:09;;;;;;;7.70;7.00;;;;;;;19.59;55.77;99825.23;107082;1254;25350;-58
2024/04/18 03:39:36;;;;;;;8.40;7.50;;;;;;;19.56;55.87;99821.46;107064;1257;25427;-58
2024/04/18 03:42:04;;;;;;;7.70;7.00;;;;;;;19.50;55.99;99817.94;107102;1251;25378;-57
2024/04/18 03:44:49;;;;;;;8.00;7.20;;;;;;;19.45;56.22;99806.35;107164;1263;23267;-57
2024/04/18 03:47:16;;;;;;;7.80;7.00;;;;;;;19.41;56.44;99800.48;107087;1256;25448;-57
2024/04/18 03:50:04;;;;;;;8.10;7.30;;;;;;;19.39;56.69;99791.48;107186;1263;25382;-57
2024/04/18 03:52:40;;;;;;;8.00;7.20;;;;;;;19.42;56.83;99784.01;107045;1254;25343;-57
2024/04/18 03:55:26;;;;;;;9.20;6.40;;;;;;;19.45;56.99;99777.84;106870;1258;22522;-57
2024/04/18 03:57:53;;;;;;;6.00;5.50;;;;;;;19.48;57.10;99784.11;106834;1264;25369;-57
2024/04/18 04:00:38;;;;;;;7.40;6.20;;;;;;;19.52;57.24;99781.40;107111;1257;25417;-57
2024/04/18 04:03:09;;;;;;;6.60;5.30;;;;;;;19.55;57.42;99776.63;107072;1263;22531;-57
2024/04/18 04:05:36;;;;;;;7.40;5.80;;;;;;;19.57;57.63;99774.34;107119;1266;25503;-57
2024/04/18 04:08:05;;;;;;;6.30;5.70;;;;;;;19.56;57.66;99783.02;107103;1254;25375;-57
2024/04/18 04:10:39;;;;;;;5.50;5.00;;;;;;;19.55;57.77;99783.98;107064;1256;25415;-57
2024/04/18 04:13:06;;;;;;;7.10;6.50;;;;;;;19.56;57.76;99775.71;107078;1257;25334;-57
2024/04/18 04:15:53;;;;;;;7.20;5.90;;;;;;;19.55;57.89;99770.11;107074;1264;25539;-57
2024/04/18 04:18:38;;;;;;;7.90;7.20;;;;;;;19.54;57.95;99764.39;106304;1261;1003274;-58
2024/04/18 04:21:24;;;;;;;7.90;7.10;;;;;;;19.51;57.91;99764.95;107052;1266;25537;-58
2024/04/18 04:23:52;;;;;;;7.60;6.90;;;;;;;19.46;57.91;99763.67;107124;1257;25381;-58
2024/04/18 04:26:19;;;;;;;7.80;7.10;;;;;;;19.41;57.95;99769.15;106880;1259;25452;-57
2024/04/18 04:28:46;;;;;;;8.10;7.30;;;;;;;19.38;58.02;99778.88;107143;1254;24632;-58
2024/04/18 04:31:13;;;;;;;8.20;7.50;;;;;;;19.35;57.91;99779.52;107141;1254;22582;-57
2024/04/18 04:33:40;;;;;;;8.60;7.80;;;;;;;19.32;58.12;99786.70;106481;1257;1003128;-57
2024/04/18 04:36:07;;;;;;;9.00;8.20;;;;;;;19.30;58.03;99800.58;107005;1267;25356;-58
2024/04/18 04:38:34;;;;;;;8.40;7.70;;;;;;;19.27;57.85;99804.14;107074;1254;25418;-57
2024/04/18 04:41:02;;;;;;;9.70;8.50;;;;;;;19.26;57.68;99803.70;107093;1256;22528;-58
2024/04/18 04:43:30;;;;;;;10.00;8.10;;;;;;;19.21;57.44;99803.84;106966;1254;25893;-57
2024/04/18 04:45:57;;;;;;;6.90;6.20;;;;;;;19.17;57.49;99797.70;106675;1260;25334;-58
2024/04/18 04:48:37;;;;;;;6.90;6.30;;;;;;;19.14;57.21;99793.52;106909;1267;25423;-56
2024/04/18 04:51:10;;;;;;;7.60;6.80;;;;;;;19.08;57.02;99792.66;106734;1266;25369;-56
2024/04/18 04:53:37;;;;;;;6.20;5.60;;;;;;;19.03;56.87;99793.05;106485;1267;25429;-56
2024/04/18 04:56:04;;;;;;;6.30;5.70;;;;;;;19.00;56.67;99798.55;106847;1257;25363;-55
2024/04/18 04:58:31;;;;;;;5.10;4.60;;;;;;;18.97;56.56;99798.21;106917;1257;25964;-58
2024/04/18 05:01:00;;;;;;;4.40;4.00;;;;;;;18.94;56.35;99796.71;106779;1254;25471;-55
2024/04/18 05:03:36;;;;;;;3.80;3.50;;;;;;;18.92;56.21;99798.23;106701;1254;22540;-56
2024/04/18 05:06:23;;;;;;;3.40;2.80;;;;;;;18.92;56.11;99794.77;106843;1257;25351;-56
2024/04/18 05:09:09;;;;;;;5.30;4.30;;;;;;;18.95;56.09;99791.55;107087;1267;25408;-56
2024/04/18 05:11:38;;;;;;;3.50;3.20;;;;;;;18.97;55.91;99797.73;107110;1256;25433;-57
2024/04/18 05:14:26;;;;;;;6.50;3.30;;;;;;;19.01;55.93;99795.85;106874;1263;25424;-56
2024/04/18 05:16:53;;;;;;;3.70;3.40;;;;;;;19.05;55.80;99797.98;106923;1257;25340;-57
2024/04/18 05:19:20;;;;;;;3.70;3.30;;;;;;;19.06;55.56;99788.77;106799;1263;25003;-56
2024/04/18 05:21:48;;;;;;;4.50;3.10;;;;;;;19.08;55.58;99787.77;106944;1257;25416;-56
2024/04/18 05:24:34;;;;;;;3.40;3.10;;;;;;;19.10;55.43;99790.74;106931;1257;25471;-56
2024/04/18 05:27:02;;;;;;;3.90;3.20;;;;;;;19.12;55.40;99791.34;106873;1272;25657;-55
2024/04/18 05:32:16;;;;;;;3.00;2.70;;;;;;;19.18;55.03;99792.52;106808;1257;25443;-57
2024/04/18 05:35:02;;;;;;;2.50;2.30;;;;;;;19.19;55.00;99798.91;106678;1274;25359;-57
2024/04/18 05:37:30;;;;;;;4.70;2.40;;;;;;;19.22;55.02;99796.08;106847;1260;25360;-58
2024/04/18 05:39:57;;;;;;;2.20;1.90;;;;;;;19.26;55.16;99798.38;106824;1257;25380;-58
2024/04/18 05:42:25;;;;;;;2.70;2.00;;;;;;;19.33;55.02;99802.52;106846;1267;25331;-57
2024/04/18 05:45:08;;;;;;;2.70;2.30;;;;;;;19.37;54.63;99805.17;106694;1275;25381;-58
2024/04/18 05:47:55;;;;;;;2.50;2.10;;;;;;;19.40;54.27;99805.48;107044;1266;25380;-57
2024/04/18 05:50:22;;;;;;;1.90;1.80;;;;;;;19.40;54.30;99808.29;106904;1270;23173;-58
2024/04/18 05:52:51;;;;;;;2.20;2.00;;;;;;;19.40;54.13;99811.81;106851;1273;25640;-57
2024/04/18 05:55:21;;;;;;;2.50;2.30;;;;;;;19.40;54.16;99809.86;106806;1263;22528;-57
2024/04/18 05:57:48;;;;;;;2.10;1.90;;;;;;;19.40;54.04;99813.03;104960;1274;1003145;-57
2024/04/18 06:00:42;;;;;;;2.00;1.90;;;;;;;19.39;53.90;99818.23;106151;1276;25354;-57
2024/04/18 06:03:12;;;;;;;2.10;1.90;;;;;;;19.42;54.11;99822.23;106104;1276;22588;-57
2024/04/18 06:05:40;;;;;;;2.20;2.10;;;;;;;19.46;54.09;99825.27;106253;1278;22594;-57
2024/04/18 06:08:13;;;;;;;3.20;1.90;;;;;;;19.46;54.24;99828.20;106245;1276;26012;-57
2024/04/18 06:10:41;;;;;;;2.40;2.20;;;;;;;19.48;54.17;99819.15;106092;1281;25366;-57
2024/04/18 06:13:19;;;;;;;1.90;1.80;;;;;;;19.27;54.90;99824.19;106154;1278;25341;-57
2024/04/18 06:15:47;;;;;;;2.10;1.80;;;;;;;19.30;54.96;99831.19;106172;1282;25465;-57
2024/04/18 06:18:14;;;;;;;1.80;1.70;;;;;;;19.52;54.57;99841.92;106513;1276;25587;-57
2024/04/18 06:20:42;;;;;;;2.80;1.60;;;;;;;19.57;54.32;99858.64;106551;1276;25443;-57
2024/04/18 06:23:10;;;;;;;1.90;1.80;;;;;;;19.64;54.17;99864.11;106369;1276;25539;-57
2024/04/18 06:25:40;;;;;;;3.40;2.20;;;;;;;19.69;53.91;99858.64;106495;1275;25702;-56
2024/04/18 06:28:11;;;;;;;2.50;1.70;;;;;;;19.71;53.78;99859.17;106516;1275;25382;-57
2024/04/18 06:30:41;;;;;;;1.70;1.50;;;;;;;19.76;53.52;99857.91;106549;1274;25548;-57
2024/04/18 06:33:11;;;;;;;1.30;1.20;;;;;;;19.82;53.41;99856.61;106459;1278;25252;-58
2024/04/18 06:35:40;;;;;;;2.10;1.60;;;;;;;19.88;53.73;99857.05;106518;1273;23910;-55
2024/04/18 06:38:07;;;;;;;2.20;1.40;;;;;;;19.99;53.71;99854.63;106765;1267;25354;-57
2024/04/18 06:40:34;;;;;;;1.30;1.20;;;;;;;20.10;53.51;99850.60;107050;1270;25427;-58
2024/04/18 06:43:02;;;;;;;1.60;1.00;;;;;;;20.20;53.41;99842.79;106837;1274;23258;-56
2024/04/18 06:45:29;;;;;;;1.40;1.00;;;;;;;20.32;53.18;99841.05;107196;1267;25445;-56
2024/04/18 06:47:56;;;;;;;1.80;0.90;;;;;;;20.40;52.66;99836.36;107181;1272;25344;-57
2024/04/18 06:50:26;;;;;;;1.60;1.20;;;;;;;20.45;52.20;99825.42;107172;1267;25414;-56
2024/04/18 06:52:53;;;;;;;2.50;0.90;;;;;;;20.45;51.67;99798.23;107102;1267;22559;-56
2024/04/18 06:55:22;;;;;;;0.90;0.90;;;;;;;20.35;51.49;99771.21;107051;1273;25524;-56
2024/04/18 06:57:49;;;;;;;1.90;1.40;;;;;;;20.21;51.74;99751.53;107088;1267;22524;-55
2024/04/18 07:00:17;;;;;;;1.80;1.30;;;;;;;19.99;51.73;99742.65;107140;1271;25369;-56
2024/04/18 07:02:44;;;;;;;2.30;1.30;;;;;;;19.75;52.14;99755.39;106993;1270;25392;-56
2024/04/18 07:05:30;;;;;;;1.10;0.90;;;;;;;19.58;52.86;99781.85;107133;1267;25372;-56
2024/04/18 07:08:15;;;;;;;3.50;1.40;;;;;;;19.49;53.22;99804.30;107112;1264;25345;-55
2024/04/18 07:10:43;;;;;;;1.70;1.20;;;;;;;19.45;53.58;99812.16;106806;1269;25424;-56
2024/04/18 07:13:29;;;;;;;1.40;1.30;;;;;;;19.50;53.48;99824.30;106835;1266;25344;-56
2024/04/18 07:16:02;;;;;;;1.70;1.60;;;;;;;19.56;53.38;99837.11;107076;1270;23057;-55
2024/04/18 07:18:48;;;;;;;1.60;1.50;;;;;;;19.62;53.06;99857.21;106225;1270;1003209;-55
2024/04/18 07:21:16;;;;;;;2.30;2.10;;;;;;;19.67;52.70;99873.73;106897;1272;25490;-55
2024/04/18 07:23:45;;;;;;;1.60;1.50;;;;;;;19.72;52.62;99878.99;106996;1266;25451;-56
2024/04/18 07:26:32;;;;;;;1.90;1.70;;;;;;;19.74;52.14;99895.69;106924;1273;25442;-55
2024/04/18 07:28:59;;;;;;;1.40;1.30;;;;;;;19.72;51.79;99913.67;106955;1270;25354;-55
2024/04/18 07:31:34;;;;;;;1.20;1.20;;;;;;;19.65;51.55;99934.08;107012;1267;22535;-56
2024/04/18 07:34:14;;;;;;;2.50;1.40;;;;;;;19.53;51.66;99950.05;106831;1267;26664;-56
2024/04/18 07:36:43;;;;;;;1.60;1.10;;;;;;;19.44;51.71;99957.17;106766;1275;22544;-56
2024/04/18 07:39:10;;;;;;;1.30;1.00;;;;;;;19.36;51.70;99965.83;107009;1268;22536;-56
2024/04/18 07:41:38;;;;;;;1.20;1.00;;;;;;;19.30;51.94;99979.09;106741;1267;25331;-57
2024/04/18 07:44:07;;;;;;;1.40;1.00;;;;;;;19.24;51.93;99992.16;106741;1273;25430;-56
2024/04/18 07:46:36;;;;;;;0.90;0.80;;;;;;;19.19;51.63;99999.73;110585;1266;23324;-55
2024/04/18 07:49:03;;;;;;;1.10;0.60;;;;;;;19.13;51.48;100007.36;110568;1272;22536;-54
2024/04/18 07:51:30;;;;;;;0.60;0.60;;;;;;;19.05;51.27;100004.17;110595;1267;22513;-55
2024/04/18 07:53:57;;;;;;;0.80;0.50;;;;;;;19.00;51.33;99998.45;107535;1273;1002999;-55
2024/04/18 07:56:24;;;;;;;0.50;0.50;;;;;;;19.00;51.52;100004.04;110596;1267;22576;-54
2024/04/18 07:58:52;;;;;;;0.60;0.60;;;;;;;19.03;51.64;100012.27;110570;1270;22174;-55
2024/04/18 08:01:20;;;;;;;1.00;0.90;;;;;;;19.06;51.45;100017.31;110385;1271;23183;-55
2024/04/18 08:03:49;;;;;;;1.00;0.90;;;;;;;19.07;51.53;100025.50;110405;1275;22318;-55
2024/04/18 08:06:36;;;;;;;4.10;1.20;;;;;;;19.09;51.63;100030.45;110596;1267;23119;-55
2024/04/18 08:09:08;;;;;;;;;;;;;;;19.12;51.74;100018.98;110582;1270;22459;-55
2024/04/18 08:11:39;;;;;;;;;;;;;;;19.12;51.47;99995.59;110589;1267;22450;-55
2024/04/18 08:14:26;;;;;;;3.50;0.70;;;;;;;19.06;51.43;100000.79;110457;1276;23119;-55
2024/04/18 08:16:59;;;;;;;1.40;0.80;;;;;;;19.03;51.55;100008.73;110417;1270;23144;-55
2024/04/18 08:19:26;;;;;;;0.70;0.60;;;;;;;19.03;51.36;100002.56;110481;1270;22917;-55
2024/04/18 08:21:53;;;;;;;0.80;0.60;;;;;;;18.98;51.10;99998.89;110409;1276;22425;-55
2024/04/18 08:24:27;;;;;;;0.60;0.50;;;;;;;18.82;50.74;99989.09;110443;1269;22926;-55
2024/04/18 08:27:05;;;;;;;1.40;0.70;;;;;;;18.65;51.25;99981.11;110388;1270;22346;-54
2024/04/18 08:29:36;;;;;;;2.50;0.80;;;;;;;18.54;51.61;99967.77;110233;1273;23106;-56
2024/04/18 08:32:03;;;;;;;2.90;1.00;;;;;;;18.48;52.00;99974.73;110405;1276;22405;-55
2024/04/18 08:34:30;;;;;;;1.90;0.80;;;;;;;18.44;52.32;99970.58;110089;1270;22365;-55
2024/04/18 08:37:00;;;;;;;1.50;0.60;;;;;;;18.38;52.59;99965.22;110396;1270;22522;-55
2024/04/18 08:39:26;;;;;;;2.10;0.90;;;;;;;18.30;52.89;99963.81;110374;1270;22359;-56
2024/04/18 08:41:55;;;;;;;0.50;0.40;;;;;;;18.27;53.38;99978.05;110408;1273;22418;-55
2024/04/18 08:44:22;;;;;;;2.50;0.50;;;;;;;18.30;53.47;99979.10;110390;1273;22296;-55
2024/04/18 08:46:49;;;;;;;1.50;1.40;;;;;;;18.31;53.50;99983.02;110599;1267;22478;-55
2024/04/18 08:49:16;;;;;;;2.80;0.90;;;;;;;18.33;53.45;99990.13;110510;1274;22325;-55
2024/04/18 08:51:43;;;;;;;1.80;0.50;;;;;;;18.32;53.74;100003.32;110612;1267;22511;-55
2024/04/18 08:54:11;;;;;;;2.20;0.80;;;;;;;18.34;53.90;100000.92;110625;1266;23027;-55
2024/04/18 08:56:38;;;;;;;1.60;0.50;;;;;;;18.37;54.00;99986.64;110607;1266;22358;-55
2024/04/18 08:59:05;;;;;;;0.90;0.50;;;;;;;18.38;54.06;99970.29;110625;1267;22267;-55
2024/04/18 09:01:32;;;;;;;2.10;0.50;;;;;;;18.37;54.43;99966.10;110582;1270;22204;-55
2024/04/18 09:03:59;;;;;;;1.00;0.70;;;;;;;18.39;54.54;99966.52;110606;1267;22411;-55
2024/04/18 09:06:29;;;;;;;1.00;0.60;;;;;;;18.41;54.40;99972.90;110595;1274;22487;-55
2024/04/18 09:08:56;;;;;;;2.50;1.10;;;;;;;18.40;54.14;99980.16;110568;1274;22407;-55
2024/04/18 09:11:23;;;;;;;1.20;0.80;;;;;;;18.38;54.31;99989.62;110615;1270;22169;-55
2024/04/18 09:13:50;;;;;;;1.70;0.60;;;;;;;18.37;54.45;99994.61;110582;1274;23208;-55
2024/04/18 09:16:17;;;;;;;1.30;0.80;;;;;;;18.36;54.55;100002.00;110578;1270;22371;-57
2024/04/18 09:18:45;;;;;;;1.10;0.50;;;;;;;18.36;54.69;100003.09;110596;1274;22297;-55
2024/04/18 09:21:13;;;;;;;0.90;0.60;;;;;;;18.37;54.82;100007.23;110388;1275;22187;-55
2024/04/18 09:23:40;;;;;;;1.10;0.60;;;;;;;18.37;54.73;100006.66;110598;1267;22719;-55
2024/04/18 09:26:07;;;;;;;0.90;0.60;;;;;;;18.38;54.61;100007.52;110642;1266;22124;-55
2024/04/18 09:28:34;;;;;;;0.90;0.70;;;;;;;18.37;54.54;100013.88;110566;1270;22307;-55
2024/04/18 09:31:01;;;;;;;3.40;0.90;;;;;;;18.37;54.64;100019.86;110593;1270;22329;-55
2024/04/18 09:33:33;;;;;;;1.10;0.50;;;;;;;18.36;54.73;100022.69;110532;1270;22305;-54
2024/04/18 09:36:00;;;;;;;1.70;0.50;;;;;;;18.35;54.61;100008.38;110579;1274;22388;-55
2024/04/18 09:38:34;;;;;;;2.50;0.90;;;;;;;18.34;54.66;99989.66;110554;1267;22273;-55
2024/04/18 09:41:22;;;;;;;2.20;0.60;;;;;;;18.33;54.83;99992.90;110536;1267;22416;-55
2024/04/18 09:43:55;;;;;;;1.20;0.60;;;;;;;18.35;54.93;99994.17;109826;1268;1002532;-55
2024/04/18 09:46:22;;;;;;;0.80;0.50;;;;;;;18.39;54.98;99994.23;110586;1270;22401;-55
2024/04/18 09:48:49;;;;;;;1.10;0.60;;;;;;;18.44;54.72;99993.73;110611;1267;23000;-55
2024/04/18 09:51:16;;;;;;;1.40;0.70;;;;;;;18.47;54.38;99996.42;110542;1269;22282;-55
2024/04/18 09:53:44;;;;;;;1.40;0.70;;;;;;;18.46;54.41;99990.64;110554;1267;22463;-55
2024/04/18 09:56:12;;;;;;;4.50;0.90;;;;;;;18.43;54.65;99974.66;110386;1270;23157;-54
2024/04/18 09:58:39;;;;;;;2.20;1.00;;;;;;;18.42;54.86;99968.62;110528;1269;22083;-55
2024/04/18 10:01:06;;;;;;;1.90;1.00;;;;;;;18.41;55.05;99974.09;110520;1274;22338;-55
2024/04/18 10:03:33;;;;;;;3.80;1.30;;;;;;;18.41;55.13;99968.48;110563;1267;22573;-56
2024/04/18 10:06:05;;;;;;;4.70;1.40;;;;;;;18.40;55.27;99978.23;110589;1267;22238;-54
2024/04/18 10:08:35;;;;;;;12.90;1.20;;;;;;;18.38;55.25;99985.21;110582;1267;23069;-55
2024/04/18 10:11:03;;;;;;;3.10;1.30;;;;;;;18.37;55.39;99993.15;110359;1275;22492;-55
2024/04/18 10:13:30;;;;;;;1.70;0.80;;;;;;;18.37;55.44;99998.79;110534;1270;22393;-55
2024/04/18 10:16:07;;;;;;;0.90;0.50;;;;;;;18.35;55.26;100004.02;110576;1266;22399;-55
2024/04/18 10:18:37;;;;;;;3.80;0.60;;;;;;;18.34;55.34;100004.63;110512;1270;23204;-55
2024/04/18 10:21:11;;;;;;;2.90;0.90;;;;;;;18.32;55.51;99994.58;110542;1267;22622;-55
2024/04/18 10:24:05;;;;;;;2.10;0.90;;;;;;;18.30;55.73;99993.48;110608;1267;22139;-54
2024/04/18 10:26:33;;;;;;;1.70;0.60;;;;;;;18.32;55.91;99998.05;110021;1281;22329;-54
2024/04/18 10:29:00;;;;;;;2.70;0.60;;;;;;;18.35;55.67;100000.48;107711;1275;1006684;-55
2024/04/18 10:31:28;;;;;;;2.50;0.50;;;;;;;18.37;55.42;100004.96;109918;1281;22546;-54
2024/04/18 10:33:55;;;;;;;1.00;0.70;;;;;;;18.28;55.80;100024.28;109930;1281;23019;-54
2024/04/18 10:36:23;;;;;;;2.10;0.70;;;;;;;18.35;55.56;100033.86;109920;1273;22590;-55
2024/04/18 10:38:50;;;;;;;2.50;0.60;;;;;;;18.24;55.97;100015.29;109747;1271;22337;-55
2024/04/18 10:41:21;;;;;;;0.70;0.60;;;;;;;18.21;56.27;99986.52;109874;1276;23085;-55
2024/04/18 10:43:48;;;;;;;1.70;1.10;;;;;;;18.21;56.32;99972.09;109883;1276;22265;-54
2024/04/18 10:46:15;;;;;;;2.80;0.90;;;;;;;18.22;55.78;99965.53;109846;1276;22475;-55
2024/04/18 10:48:42;;;;;;;1.60;0.80;;;;;;;18.22;55.71;99972.36;109648;1276;256127;-55
2024/04/18 10:51:09;;;;;;;1.10;0.60;;;;;;;18.26;55.83;99982.16;109105;1284;1002571;-55
2024/04/18 10:53:37;;;;;;;0.40;0.40;;;;;;;18.27;55.73;99985.77;109850;1276;22395;-55
2024/04/18 10:56:04;;;;;;;0.40;0.30;;;;;;;18.27;55.72;99982.77;109853;1276;22362;-55
2024/04/18 10:58:32;;;;;;;0.50;0.30;;;;;;;18.28;56.34;99984.84;109854;1276;22493;-55
2024/04/18 11:00:59;;;;;;;0.40;0.30;;;;;;;18.31;56.29;99977.23;109717;1279;23127;-55
2024/04/18 11:03:27;;;;;;;1.00;0.50;;;;;;;18.39;56.33;99973.02;110092;1269;22458;-54
2024/04/18 11:05:58;;;;;;;0.50;0.30;;;;;;;18.53;56.20;99964.89;110318;1269;22992;-55
2024/04/18 11:08:25;;;;;;;0.40;0.30;;;;;;;18.74;55.81;99966.30;110330;1270;22498;-54
2024/04/18 11:10:53;;;;;;;0.70;0.40;;;;;;;18.86;55.99;99964.55;110570;1266;22412;-55
2024/04/18 11:13:20;;;;;;;1.20;0.40;;;;;;;18.99;56.29;99966.14;110608;1270;22365;-55
2024/04/18 11:15:47;;;;;;;2.00;0.40;;;;;;;19.13;55.96;99973.06;110290;1273;22384;-55
2024/04/18 11:18:14;;;;;;;0.60;0.30;;;;;;;19.24;55.43;99971.55;110518;1267;23138;-55
2024/04/18 11:20:41;;;;;;;0.40;0.30;;;;;;;19.27;55.14;99971.17;110586;1269;22273;-55
2024/04/18 11:23:08;;;;;;;1.60;0.50;;;;;;;19.38;54.62;99980.31;110585;1273;22991;-55
2024/04/18 11:25:42;;;;;;;1.00;0.40;;;;;;;19.46;53.47;99974.91;110608;1266;23184;-54
2024/04/18 11:28:09;;;;;;;0.90;0.40;;;;;;;19.49;52.92;99971.21;110640;1266;23311;-55
2024/04/18 11:30:39;;;;;;;1.90;0.60;;;;;;;19.49;53.09;99965.41;110672;1266;23234;-55
2024/04/18 11:33:08;;;;;;;2.50;0.80;;;;;;;19.52;52.93;99962.46;110564;1274;22259;-55
2024/04/18 11:35:35;;;;;;;0.80;0.60;;;;;;;19.55;53.00;99959.40;110591;1266;22372;-55
2024/04/18 11:38:09;;;;;;;0.40;0.40;;;;;;;19.60;52.61;99952.73;110575;1267;22365;-55
2024/04/18 11:40:39;;;;;;;0.50;0.30;;;;;;;19.63;52.44;99942.80;110507;1267;22419;-55
2024/04/18 11:43:05;;;;;;;0.40;0.20;;;;;;;19.67;51.93;99937.05;110353;1270;23291;-55
2024/04/18 11:45:33;;;;;;;0.50;0.20;;;;;;;19.73;52.48;99929.96;110342;1269;22480;-55
2024/04/18 11:48:00;;;;;;;0.30;0.20;;;;;;;19.83;52.42;99927.42;110322;1269;22162;-55